sensor_id;sensor_type;location;lat;lon;timestamp;temperature;humidity
69533;DHT22;56729;52.036;5.332;2022-09-03T00:01:02;17.70;55.90
69533;DHT22;56729;52.036;5.332;2022-09-03T00:02:12;17.70;56.00
69533;DHT22;56729;52.036;5.332;2022-09-03T00:03:24;17.80;56.20
69533;DHT22;56729;52.036;5.332;2022-09-03T00:04:40;17.80;56.30
69533;DHT22;56729;52.036;5.332;2022-09-03T00:06:09;17.80;56.40
69533;DHT22;56729;52.036;5.332;2022-09-03T00:07:27;17.80;56.10
69533;DHT22;56729;52.036;5.332;2022-09-03T00:08:41;17.80;56.00
69533;DHT22;56729;52.036;5.332;2022-09-03T00:09:55;17.80;55.90
69533;DHT22;56729;52.036;5.332;2022-09-03T00:11:04;17.90;55.80
69533;DHT22;56729;52.036;5.332;2022-09-03T00:12:28;17.90;55.80
69533;DHT22;56729;52.036;5.332;2022-09-03T00:13:36;17.90;55.50
69533;DHT22;56729;52.036;5.332;2022-09-03T00:14:49;17.90;55.40
69533;DHT22;56729;52.036;5.332;2022-09-03T00:15:55;18.00;55.40
69533;DHT22;56729;52.036;5.332;2022-09-03T00:17:14;18.00;55.30
69533;DHT22;56729;52.036;5.332;2022-09-03T00:18:20;18.00;54.70
69533;DHT22;56729;52.036;5.332;2022-09-03T00:19:28;18.00;54.80
69533;DHT22;56729;52.036;5.332;2022-09-03T00:20:33;18.00;55.10
69533;DHT22;56729;52.036;5.332;2022-09-03T00:21:50;18.00;55.10
69533;DHT22;56729;52.036;5.332;2022-09-03T00:23:02;18.00;55.10
69533;DHT22;56729;52.036;5.332;2022-09-03T00:24:10;17.90;55.10
69533;DHT22;56729;52.036;5.332;2022-09-03T00:25:20;17.90;55.00
69533;DHT22;56729;52.036;5.332;2022-09-03T00:26:27;17.90;55.00
69533;DHT22;56729;52.036;5.332;2022-09-03T00:27:36;17.90;55.00
69533;DHT22;56729;52.036;5.332;2022-09-03T00:28:51;17.90;55.40
69533;DHT22;56729;52.036;5.332;2022-09-03T00:30:06;17.90;55.40
69533;DHT22;56729;52.036;5.332;2022-09-03T00:31:19;17.90;55.40
69533;DHT22;56729;52.036;5.332;2022-09-03T00:32:28;17.80;55.50
69533;DHT22;56729;52.036;5.332;2022-09-03T00:33:34;17.80;55.60
69533;DHT22;56729;52.036;5.332;2022-09-03T00:34:40;17.80;55.60
69533;DHT22;56729;52.036;5.332;2022-09-03T00:36:14;17.80;55.80
69533;DHT22;56729;52.036;5.332;2022-09-03T00:37:13;17.80;55.70
69533;DHT22;56729;52.036;5.332;2022-09-03T00:38:16;17.70;55.80
69533;DHT22;56729;52.036;5.332;2022-09-03T00:39:21;17.70;56.00
69533;DHT22;56729;52.036;5.332;2022-09-03T00:40:44;17.70;56.30
69533;DHT22;56729;52.036;5.332;2022-09-03T00:45:03;17.70;56.00
69533;DHT22;56729;52.036;5.332;2022-09-03T00:51:25;17.60;56.40
69533;DHT22;56729;52.036;5.332;2022-09-03T00:52:56;17.60;56.30
69533;DHT22;56729;52.036;5.332;2022-09-03T00:54:15;17.60;56.10
69533;DHT22;56729;52.036;5.332;2022-09-03T00:57:03;17.60;56.00
69533;DHT22;56729;52.036;5.332;2022-09-03T00:58:38;17.60;56.20
69533;DHT22;56729;52.036;5.332;2022-09-03T01:00:07;17.50;56.30
69533;DHT22;56729;52.036;5.332;2022-09-03T01:01:17;17.50;56.30
69533;DHT22;56729;52.036;5.332;2022-09-03T01:07:35;17.40;56.30
69533;DHT22;56729;52.036;5.332;2022-09-03T01:09:53;17.40;56.20
69533;DHT22;56729;52.036;5.332;2022-09-03T01:12:41;17.40;56.40
69533;DHT22;56729;52.036;5.332;2022-09-03T01:16:48;17.50;56.90
69533;DHT22;56729;52.036;5.332;2022-09-03T01:20:38;17.40;57.00
69533;DHT22;56729;52.036;5.332;2022-09-03T01:25:00;17.40;57.00
69533;DHT22;56729;52.036;5.332;2022-09-03T01:28:31;17.50;57.20
69533;DHT22;56729;52.036;5.332;2022-09-03T01:29:46;17.50;57.20
69533;DHT22;56729;52.036;5.332;2022-09-03T01:33:04;17.50;57.00
69533;DHT22;56729;52.036;5.332;2022-09-03T01:34:17;17.50;57.20
69533;DHT22;56729;52.036;5.332;2022-09-03T01:35:37;17.50;57.10
69533;DHT22;56729;52.036;5.332;2022-09-03T01:38:33;17.50;57.00
69533;DHT22;56729;52.036;5.332;2022-09-03T01:46:16;17.40;57.40
69533;DHT22;56729;52.036;5.332;2022-09-03T01:47:28;17.40;57.50
69533;DHT22;56729;52.036;5.332;2022-09-03T01:50:00;17.40;57.80
69533;DHT22;56729;52.036;5.332;2022-09-03T01:51:20;17.40;57.50
69533;DHT22;56729;52.036;5.332;2022-09-03T01:53:02;17.40;57.60
69533;DHT22;56729;52.036;5.332;2022-09-03T01:59:21;17.30;57.90
69533;DHT22;56729;52.036;5.332;2022-09-03T02:00:25;17.30;58.90
69533;DHT22;56729;52.036;5.332;2022-09-03T02:01:33;17.30;58.00
69533;DHT22;56729;52.036;5.332;2022-09-03T02:02:36;17.30;58.20
69533;DHT22;56729;52.036;5.332;2022-09-03T02:03:41;17.30;58.40
69533;DHT22;56729;52.036;5.332;2022-09-03T02:05:21;17.30;58.40
69533;DHT22;56729;52.036;5.332;2022-09-03T02:06:26;17.20;59.40
69533;DHT22;56729;52.036;5.332;2022-09-03T02:07:34;17.20;58.50
69533;DHT22;56729;52.036;5.332;2022-09-03T02:08:37;17.20;58.50
69533;DHT22;56729;52.036;5.332;2022-09-03T02:09:39;17.20;58.70
69533;DHT22;56729;52.036;5.332;2022-09-03T02:10:54;17.20;59.00
69533;DHT22;56729;52.036;5.332;2022-09-03T02:12:15;17.20;58.80
69533;DHT22;56729;52.036;5.332;2022-09-03T02:13:23;17.20;58.70
69533;DHT22;56729;52.036;5.332;2022-09-03T02:14:26;17.20;58.80
69533;DHT22;56729;52.036;5.332;2022-09-03T02:15:30;17.20;58.80
69533;DHT22;56729;52.036;5.332;2022-09-03T02:16:34;17.20;58.70
69533;DHT22;56729;52.036;5.332;2022-09-03T02:17:36;17.20;58.80
69533;DHT22;56729;52.036;5.332;2022-09-03T02:18:54;17.20;58.80
69533;DHT22;56729;52.036;5.332;2022-09-03T02:19:58;17.20;58.90
69533;DHT22;56729;52.036;5.332;2022-09-03T02:21:04;17.10;58.80
69533;DHT22;56729;52.036;5.332;2022-09-03T02:22:07;17.10;58.50
69533;DHT22;56729;52.036;5.332;2022-09-03T02:23:09;17.10;58.50
69533;DHT22;56729;52.036;5.332;2022-09-03T02:24:11;17.10;58.80
69533;DHT22;56729;52.036;5.332;2022-09-03T02:25:14;17.10;58.50
69533;DHT22;56729;52.036;5.332;2022-09-03T02:26:20;17.10;58.20
69533;DHT22;56729;52.036;5.332;2022-09-03T02:27:22;17.10;58.20
69533;DHT22;56729;52.036;5.332;2022-09-03T02:28:25;17.10;58.00
69533;DHT22;56729;52.036;5.332;2022-09-03T02:29:28;17.10;58.10
69533;DHT22;56729;52.036;5.332;2022-09-03T02:30:31;17.10;58.40
69533;DHT22;56729;52.036;5.332;2022-09-03T02:31:33;17.10;58.50
69533;DHT22;56729;52.036;5.332;2022-09-03T02:32:35;17.10;58.60
69533;DHT22;56729;52.036;5.332;2022-09-03T02:33:39;17.10;58.00
69533;DHT22;56729;52.036;5.332;2022-09-03T02:34:41;17.10;58.00
69533;DHT22;56729;52.036;5.332;2022-09-03T02:35:44;17.10;58.40
69533;DHT22;56729;52.036;5.332;2022-09-03T02:36:47;17.00;58.70
69533;DHT22;56729;52.036;5.332;2022-09-03T02:37:49;17.00;58.90
69533;DHT22;56729;52.036;5.332;2022-09-03T02:38:51;17.10;59.00
69533;DHT22;56729;52.036;5.332;2022-09-03T02:39:53;17.00;58.90
69533;DHT22;56729;52.036;5.332;2022-09-03T02:40:56;17.00;59.00
69533;DHT22;56729;52.036;5.332;2022-09-03T02:41:58;17.00;59.30
69533;DHT22;56729;52.036;5.332;2022-09-03T02:43:02;17.00;59.20
69533;DHT22;56729;52.036;5.332;2022-09-03T02:44:12;17.00;59.60
69533;DHT22;56729;52.036;5.332;2022-09-03T02:46:24;17.00;60.00
69533;DHT22;56729;52.036;5.332;2022-09-03T02:47:30;17.00;60.10
69533;DHT22;56729;52.036;5.332;2022-09-03T02:48:34;17.00;59.60
69533;DHT22;56729;52.036;5.332;2022-09-03T02:49:36;17.00;59.60
69533;DHT22;56729;52.036;5.332;2022-09-03T02:50:42;16.90;59.80
69533;DHT22;56729;52.036;5.332;2022-09-03T02:51:44;16.90;59.40
69533;DHT22;56729;52.036;5.332;2022-09-03T02:52:46;16.90;59.10
69533;DHT22;56729;52.036;5.332;2022-09-03T02:53:48;16.90;59.50
69533;DHT22;56729;52.036;5.332;2022-09-03T02:54:51;16.90;60.00
69533;DHT22;56729;52.036;5.332;2022-09-03T02:55:58;16.90;59.80
69533;DHT22;56729;52.036;5.332;2022-09-03T02:57:01;16.90;60.00
69533;DHT22;56729;52.036;5.332;2022-09-03T02:58:03;16.90;59.80
69533;DHT22;56729;52.036;5.332;2022-09-03T02:59:08;16.90;59.80
69533;DHT22;56729;52.036;5.332;2022-09-03T03:00:10;16.90;59.90
69533;DHT22;56729;52.036;5.332;2022-09-03T03:01:13;16.90;59.70
69533;DHT22;56729;52.036;5.332;2022-09-03T03:02:24;16.90;59.70
69533;DHT22;56729;52.036;5.332;2022-09-03T03:03:26;16.90;59.40
69533;DHT22;56729;52.036;5.332;2022-09-03T03:04:29;16.90;59.20
69533;DHT22;56729;52.036;5.332;2022-09-03T03:05:44;16.90;59.50
69533;DHT22;56729;52.036;5.332;2022-09-03T03:06:47;16.90;59.80
69533;DHT22;56729;52.036;5.332;2022-09-03T03:07:51;16.90;59.80
69533;DHT22;56729;52.036;5.332;2022-09-03T03:08:53;16.90;59.50
69533;DHT22;56729;52.036;5.332;2022-09-03T03:09:56;16.90;59.40
69533;DHT22;56729;52.036;5.332;2022-09-03T03:10:59;16.90;59.80
69533;DHT22;56729;52.036;5.332;2022-09-03T03:12:02;16.90;59.70
69533;DHT22;56729;52.036;5.332;2022-09-03T03:13:04;16.90;59.70
69533;DHT22;56729;52.036;5.332;2022-09-03T03:14:06;16.90;59.80
69533;DHT22;56729;52.036;5.332;2022-09-03T03:15:08;16.90;59.90
69533;DHT22;56729;52.036;5.332;2022-09-03T03:16:12;16.90;60.20
69533;DHT22;56729;52.036;5.332;2022-09-03T03:17:14;16.90;60.30
69533;DHT22;56729;52.036;5.332;2022-09-03T03:18:16;17.00;60.30
69533;DHT22;56729;52.036;5.332;2022-09-03T03:19:18;17.00;60.20
69533;DHT22;56729;52.036;5.332;2022-09-03T03:20:20;17.00;60.10
69533;DHT22;56729;52.036;5.332;2022-09-03T03:21:22;17.00;60.30
69533;DHT22;56729;52.036;5.332;2022-09-03T03:22:24;17.00;60.50
69533;DHT22;56729;52.036;5.332;2022-09-03T03:23:26;17.00;60.50
69533;DHT22;56729;52.036;5.332;2022-09-03T03:24:28;17.00;60.50
69533;DHT22;56729;52.036;5.332;2022-09-03T03:25:34;17.00;60.60
69533;DHT22;56729;52.036;5.332;2022-09-03T03:26:37;17.00;60.70
69533;DHT22;56729;52.036;5.332;2022-09-03T03:27:38;17.00;60.50
69533;DHT22;56729;52.036;5.332;2022-09-03T03:28:43;17.00;60.60
69533;DHT22;56729;52.036;5.332;2022-09-03T03:29:45;17.00;60.70
69533;DHT22;56729;52.036;5.332;2022-09-03T03:30:47;17.10;60.70
69533;DHT22;56729;52.036;5.332;2022-09-03T03:31:50;17.10;60.40
69533;DHT22;56729;52.036;5.332;2022-09-03T03:32:53;17.10;59.90
69533;DHT22;56729;52.036;5.332;2022-09-03T03:34:00;17.00;59.60
69533;DHT22;56729;52.036;5.332;2022-09-03T03:35:04;17.10;59.70
69533;DHT22;56729;52.036;5.332;2022-09-03T03:36:16;17.10;59.90
69533;DHT22;56729;52.036;5.332;2022-09-03T03:37:18;17.10;59.90
69533;DHT22;56729;52.036;5.332;2022-09-03T03:38:20;17.00;59.70
69533;DHT22;56729;52.036;5.332;2022-09-03T03:39:22;17.00;59.40
69533;DHT22;56729;52.036;5.332;2022-09-03T03:40:24;17.00;59.40
69533;DHT22;56729;52.036;5.332;2022-09-03T03:41:28;17.00;60.00
69533;DHT22;56729;52.036;5.332;2022-09-03T03:42:33;17.00;60.00
69533;DHT22;56729;52.036;5.332;2022-09-03T03:43:35;16.90;59.90
69533;DHT22;56729;52.036;5.332;2022-09-03T03:44:37;16.90;60.00
69533;DHT22;56729;52.036;5.332;2022-09-03T03:45:39;16.90;60.00
69533;DHT22;56729;52.036;5.332;2022-09-03T03:46:41;16.90;59.80
69533;DHT22;56729;52.036;5.332;2022-09-03T03:47:43;16.90;60.30
69533;DHT22;56729;52.036;5.332;2022-09-03T03:48:47;16.90;60.70
69533;DHT22;56729;52.036;5.332;2022-09-03T03:49:49;16.90;60.80
69533;DHT22;56729;52.036;5.332;2022-09-03T03:50:51;16.90;60.60
69533;DHT22;56729;52.036;5.332;2022-09-03T03:51:54;16.90;60.70
69533;DHT22;56729;52.036;5.332;2022-09-03T03:53:00;16.90;60.70
69533;DHT22;56729;52.036;5.332;2022-09-03T03:54:02;16.90;61.60
69533;DHT22;56729;52.036;5.332;2022-09-03T03:55:06;16.90;60.40
69533;DHT22;56729;52.036;5.332;2022-09-03T03:56:10;16.90;61.10
69533;DHT22;56729;52.036;5.332;2022-09-03T03:57:13;16.90;61.20
69533;DHT22;56729;52.036;5.332;2022-09-03T03:58:15;16.90;61.20
69533;DHT22;56729;52.036;5.332;2022-09-03T03:59:17;16.90;61.30
69533;DHT22;56729;52.036;5.332;2022-09-03T04:00:19;16.90;61.30
69533;DHT22;56729;52.036;5.332;2022-09-03T04:01:23;16.90;61.00
69533;DHT22;56729;52.036;5.332;2022-09-03T04:02:26;16.90;60.90
69533;DHT22;56729;52.036;5.332;2022-09-03T04:03:28;16.90;61.90
69533;DHT22;56729;52.036;5.332;2022-09-03T04:04:29;16.90;61.00
69533;DHT22;56729;52.036;5.332;2022-09-03T04:05:31;16.90;61.20
69533;DHT22;56729;52.036;5.332;2022-09-03T04:06:34;16.80;61.30
69533;DHT22;56729;52.036;5.332;2022-09-03T04:07:36;16.80;61.20
69533;DHT22;56729;52.036;5.332;2022-09-03T04:08:39;16.80;61.00
69533;DHT22;56729;52.036;5.332;2022-09-03T04:09:41;16.80;62.50
69533;DHT22;56729;52.036;5.332;2022-09-03T04:10:43;16.80;61.30
69533;DHT22;56729;52.036;5.332;2022-09-03T04:11:45;16.80;61.60
69533;DHT22;56729;52.036;5.332;2022-09-03T04:12:47;16.80;61.50
69533;DHT22;56729;52.036;5.332;2022-09-03T04:13:50;16.80;62.00
69533;DHT22;56729;52.036;5.332;2022-09-03T04:14:52;16.70;61.90
69533;DHT22;56729;52.036;5.332;2022-09-03T04:16:02;16.70;61.90
69533;DHT22;56729;52.036;5.332;2022-09-03T04:17:04;16.70;61.60
69533;DHT22;56729;52.036;5.332;2022-09-03T04:18:06;16.70;61.70
69533;DHT22;56729;52.036;5.332;2022-09-03T04:19:09;16.70;61.60
69533;DHT22;56729;52.036;5.332;2022-09-03T04:20:11;16.70;61.40
69533;DHT22;56729;52.036;5.332;2022-09-03T04:21:16;16.70;61.00
69533;DHT22;56729;52.036;5.332;2022-09-03T04:22:18;16.70;61.00
69533;DHT22;56729;52.036;5.332;2022-09-03T04:23:22;16.70;61.10
69533;DHT22;56729;52.036;5.332;2022-09-03T04:24:24;16.70;61.20
69533;DHT22;56729;52.036;5.332;2022-09-03T04:25:26;16.70;62.40
69533;DHT22;56729;52.036;5.332;2022-09-03T04:26:30;16.70;61.20
69533;DHT22;56729;52.036;5.332;2022-09-03T04:27:32;16.70;61.20
69533;DHT22;56729;52.036;5.332;2022-09-03T04:28:35;16.70;61.20
69533;DHT22;56729;52.036;5.332;2022-09-03T04:29:37;16.60;61.20
69533;DHT22;56729;52.036;5.332;2022-09-03T04:30:40;16.60;61.50
69533;DHT22;56729;52.036;5.332;2022-09-03T04:31:41;16.60;61.70
69533;DHT22;56729;52.036;5.332;2022-09-03T04:33:03;16.60;62.10
69533;DHT22;56729;52.036;5.332;2022-09-03T04:34:05;16.60;61.80
69533;DHT22;56729;52.036;5.332;2022-09-03T04:35:07;16.60;61.70
69533;DHT22;56729;52.036;5.332;2022-09-03T04:36:13;16.60;61.20
69533;DHT22;56729;52.036;5.332;2022-09-03T04:37:17;16.60;60.90
69533;DHT22;56729;52.036;5.332;2022-09-03T04:38:20;16.60;61.10
69533;DHT22;56729;52.036;5.332;2022-09-03T04:39:24;16.60;61.60
69533;DHT22;56729;52.036;5.332;2022-09-03T04:40:26;16.50;61.90
69533;DHT22;56729;52.036;5.332;2022-09-03T04:41:29;16.50;61.80
69533;DHT22;56729;52.036;5.332;2022-09-03T04:42:31;16.50;61.60
69533;DHT22;56729;52.036;5.332;2022-09-03T04:43:35;16.60;61.70
69533;DHT22;56729;52.036;5.332;2022-09-03T04:44:37;16.50;61.40
69533;DHT22;56729;52.036;5.332;2022-09-03T04:45:41;16.50;61.10
69533;DHT22;56729;52.036;5.332;2022-09-03T04:46:43;16.50;60.70
69533;DHT22;56729;52.036;5.332;2022-09-03T04:48:04;16.50;60.80
69533;DHT22;56729;52.036;5.332;2022-09-03T04:49:06;16.50;60.50
69533;DHT22;56729;52.036;5.332;2022-09-03T04:50:10;16.50;60.50
69533;DHT22;56729;52.036;5.332;2022-09-03T04:51:15;16.50;60.50
69533;DHT22;56729;52.036;5.332;2022-09-03T04:52:18;16.50;60.40
69533;DHT22;56729;52.036;5.332;2022-09-03T04:53:21;16.50;60.30
69533;DHT22;56729;52.036;5.332;2022-09-03T04:54:23;16.40;61.00
69533;DHT22;56729;52.036;5.332;2022-09-03T04:55:36;16.40;61.20
69533;DHT22;56729;52.036;5.332;2022-09-03T04:56:38;16.40;61.50
69533;DHT22;56729;52.036;5.332;2022-09-03T04:57:41;16.40;61.60
69533;DHT22;56729;52.036;5.332;2022-09-03T04:58:44;16.40;61.80
69533;DHT22;56729;52.036;5.332;2022-09-03T04:59:49;16.40;62.00
69533;DHT22;56729;52.036;5.332;2022-09-03T05:00:51;16.40;62.10
69533;DHT22;56729;52.036;5.332;2022-09-03T05:01:53;16.50;62.10
69533;DHT22;56729;52.036;5.332;2022-09-03T05:02:59;16.40;62.10
69533;DHT22;56729;52.036;5.332;2022-09-03T05:04:02;16.40;62.00
69533;DHT22;56729;52.036;5.332;2022-09-03T05:05:05;16.50;62.10
69533;DHT22;56729;52.036;5.332;2022-09-03T05:06:07;16.50;62.30
69533;DHT22;56729;52.036;5.332;2022-09-03T05:07:10;16.50;62.60
69533;DHT22;56729;52.036;5.332;2022-09-03T05:08:12;16.50;63.00
69533;DHT22;56729;52.036;5.332;2022-09-03T05:09:14;16.50;62.60
69533;DHT22;56729;52.036;5.332;2022-09-03T05:10:16;16.50;62.30
69533;DHT22;56729;52.036;5.332;2022-09-03T05:11:21;16.40;62.00
69533;DHT22;56729;52.036;5.332;2022-09-03T05:12:23;16.40;61.60
69533;DHT22;56729;52.036;5.332;2022-09-03T05:13:26;16.40;61.80
69533;DHT22;56729;52.036;5.332;2022-09-03T05:14:29;16.50;62.30
69533;DHT22;56729;52.036;5.332;2022-09-03T05:15:31;16.50;62.40
69533;DHT22;56729;52.036;5.332;2022-09-03T05:16:33;16.50;62.50
69533;DHT22;56729;52.036;5.332;2022-09-03T05:17:35;16.50;62.80
69533;DHT22;56729;52.036;5.332;2022-09-03T05:18:40;16.50;62.80
69533;DHT22;56729;52.036;5.332;2022-09-03T05:19:43;16.50;62.80
69533;DHT22;56729;52.036;5.332;2022-09-03T05:20:45;16.50;62.90
69533;DHT22;56729;52.036;5.332;2022-09-03T05:21:47;16.50;62.90
69533;DHT22;56729;52.036;5.332;2022-09-03T05:22:49;16.50;62.60
69533;DHT22;56729;52.036;5.332;2022-09-03T05:23:51;16.50;62.60
69533;DHT22;56729;52.036;5.332;2022-09-03T05:24:53;16.50;62.40
69533;DHT22;56729;52.036;5.332;2022-09-03T05:25:58;16.50;62.40
69533;DHT22;56729;52.036;5.332;2022-09-03T05:27:00;16.60;62.70
69533;DHT22;56729;52.036;5.332;2022-09-03T05:28:03;16.50;62.60
69533;DHT22;56729;52.036;5.332;2022-09-03T05:29:06;16.50;62.80
69533;DHT22;56729;52.036;5.332;2022-09-03T05:30:09;16.60;62.90
69533;DHT22;56729;52.036;5.332;2022-09-03T05:31:16;16.50;63.10
69533;DHT22;56729;52.036;5.332;2022-09-03T05:32:19;16.60;62.90
69533;DHT22;56729;52.036;5.332;2022-09-03T05:33:20;16.60;62.80
69533;DHT22;56729;52.036;5.332;2022-09-03T05:34:24;16.60;62.70
69533;DHT22;56729;52.036;5.332;2022-09-03T05:35:26;16.60;62.40
69533;DHT22;56729;52.036;5.332;2022-09-03T05:36:33;16.60;62.30
69533;DHT22;56729;52.036;5.332;2022-09-03T05:37:36;16.60;62.50
69533;DHT22;56729;52.036;5.332;2022-09-03T05:38:39;16.60;62.50
69533;DHT22;56729;52.036;5.332;2022-09-03T05:39:41;16.60;62.40
69533;DHT22;56729;52.036;5.332;2022-09-03T05:40:43;16.60;62.40
69533;DHT22;56729;52.036;5.332;2022-09-03T05:41:45;16.60;62.60
69533;DHT22;56729;52.036;5.332;2022-09-03T05:42:47;16.60;62.30
69533;DHT22;56729;52.036;5.332;2022-09-03T05:43:56;16.60;62.30
69533;DHT22;56729;52.036;5.332;2022-09-03T05:45:00;16.60;62.10
69533;DHT22;56729;52.036;5.332;2022-09-03T05:46:05;16.60;62.30
69533;DHT22;56729;52.036;5.332;2022-09-03T05:47:07;16.60;62.70
69533;DHT22;56729;52.036;5.332;2022-09-03T05:48:09;16.60;62.60
69533;DHT22;56729;52.036;5.332;2022-09-03T05:49:11;16.60;62.70
69533;DHT22;56729;52.036;5.332;2022-09-03T05:50:13;16.60;62.90
69533;DHT22;56729;52.036;5.332;2022-09-03T05:51:17;16.60;63.10
69533;DHT22;56729;52.036;5.332;2022-09-03T05:52:20;16.60;63.30
69533;DHT22;56729;52.036;5.332;2022-09-03T05:53:23;16.60;63.20
69533;DHT22;56729;52.036;5.332;2022-09-03T05:54:26;16.60;63.10
69533;DHT22;56729;52.036;5.332;2022-09-03T05:55:28;16.60;63.00
69533;DHT22;56729;52.036;5.332;2022-09-03T05:56:31;16.60;62.90
69533;DHT22;56729;52.036;5.332;2022-09-03T05:57:33;16.60;62.70
69533;DHT22;56729;52.036;5.332;2022-09-03T05:58:40;16.60;62.70
69533;DHT22;56729;52.036;5.332;2022-09-03T05:59:44;16.70;62.70
69533;DHT22;56729;52.036;5.332;2022-09-03T06:00:46;16.70;62.80
69533;DHT22;56729;52.036;5.332;2022-09-03T06:01:48;16.70;62.80
69533;DHT22;56729;52.036;5.332;2022-09-03T06:02:55;16.70;62.90
69533;DHT22;56729;52.036;5.332;2022-09-03T06:04:00;16.70;63.10
69533;DHT22;56729;52.036;5.332;2022-09-03T06:05:04;16.70;63.00
69533;DHT22;56729;52.036;5.332;2022-09-03T06:06:06;16.70;63.00
69533;DHT22;56729;52.036;5.332;2022-09-03T06:07:08;16.70;63.00
69533;DHT22;56729;52.036;5.332;2022-09-03T06:08:10;16.70;63.00
69533;DHT22;56729;52.036;5.332;2022-09-03T06:09:15;16.70;63.10
69533;DHT22;56729;52.036;5.332;2022-09-03T06:10:19;16.80;63.30
69533;DHT22;56729;52.036;5.332;2022-09-03T06:11:28;16.80;63.20
69533;DHT22;56729;52.036;5.332;2022-09-03T06:12:30;16.80;63.20
69533;DHT22;56729;52.036;5.332;2022-09-03T06:13:33;16.80;63.20
69533;DHT22;56729;52.036;5.332;2022-09-03T06:14:35;16.80;63.40
69533;DHT22;56729;52.036;5.332;2022-09-03T06:15:38;16.80;63.50
69533;DHT22;56729;52.036;5.332;2022-09-03T06:16:42;16.80;63.70
69533;DHT22;56729;52.036;5.332;2022-09-03T06:17:44;16.80;63.70
69533;DHT22;56729;52.036;5.332;2022-09-03T06:18:46;16.80;63.60
69533;DHT22;56729;52.036;5.332;2022-09-03T06:19:49;16.80;63.60
69533;DHT22;56729;52.036;5.332;2022-09-03T06:20:57;16.80;63.40
69533;DHT22;56729;52.036;5.332;2022-09-03T06:22:00;16.90;63.50
69533;DHT22;56729;52.036;5.332;2022-09-03T06:23:02;16.80;63.30
69533;DHT22;56729;52.036;5.332;2022-09-03T06:24:05;16.80;63.40
69533;DHT22;56729;52.036;5.332;2022-09-03T06:25:07;16.90;63.60
69533;DHT22;56729;52.036;5.332;2022-09-03T06:26:12;16.90;63.60
69533;DHT22;56729;52.036;5.332;2022-09-03T06:27:15;16.90;63.80
69533;DHT22;56729;52.036;5.332;2022-09-03T06:28:17;16.90;64.00
69533;DHT22;56729;52.036;5.332;2022-09-03T06:29:24;16.90;64.10
69533;DHT22;56729;52.036;5.332;2022-09-03T06:30:26;16.90;64.20
69533;DHT22;56729;52.036;5.332;2022-09-03T06:31:28;16.90;64.20
69533;DHT22;56729;52.036;5.332;2022-09-03T06:32:30;16.90;64.60
69533;DHT22;56729;52.036;5.332;2022-09-03T06:33:34;16.90;64.80
69533;DHT22;56729;52.036;5.332;2022-09-03T06:34:36;16.90;64.90
69533;DHT22;56729;52.036;5.332;2022-09-03T06:35:40;16.90;65.10
69533;DHT22;56729;52.036;5.332;2022-09-03T06:36:44;16.90;65.20
69533;DHT22;56729;52.036;5.332;2022-09-03T06:37:46;16.90;65.20
69533;DHT22;56729;52.036;5.332;2022-09-03T06:38:52;16.90;65.30
69533;DHT22;56729;52.036;5.332;2022-09-03T06:39:54;16.90;65.40
69533;DHT22;56729;52.036;5.332;2022-09-03T06:40:58;16.90;65.50
69533;DHT22;56729;52.036;5.332;2022-09-03T06:42:04;17.00;65.60
69533;DHT22;56729;52.036;5.332;2022-09-03T06:43:09;17.00;65.60
69533;DHT22;56729;52.036;5.332;2022-09-03T06:44:13;17.00;65.80
69533;DHT22;56729;52.036;5.332;2022-09-03T06:45:15;17.00;65.60
69533;DHT22;56729;52.036;5.332;2022-09-03T06:46:21;17.00;65.80
69533;DHT22;56729;52.036;5.332;2022-09-03T06:47:24;17.00;65.40
69533;DHT22;56729;52.036;5.332;2022-09-03T06:48:28;17.00;65.10
69533;DHT22;56729;52.036;5.332;2022-09-03T06:49:31;17.00;65.10
69533;DHT22;56729;52.036;5.332;2022-09-03T06:50:33;17.00;65.20
69533;DHT22;56729;52.036;5.332;2022-09-03T06:51:36;17.10;65.30
69533;DHT22;56729;52.036;5.332;2022-09-03T06:52:39;17.10;65.10
69533;DHT22;56729;52.036;5.332;2022-09-03T06:53:47;17.10;65.30
69533;DHT22;56729;52.036;5.332;2022-09-03T06:54:49;17.10;65.50
69533;DHT22;56729;52.036;5.332;2022-09-03T06:55:55;17.10;65.30
69533;DHT22;56729;52.036;5.332;2022-09-03T06:56:57;17.10;65.90
69533;DHT22;56729;52.036;5.332;2022-09-03T06:58:00;17.10;65.70
69533;DHT22;56729;52.036;5.332;2022-09-03T06:59:08;17.10;65.40
69533;DHT22;56729;52.036;5.332;2022-09-03T07:00:11;17.20;65.50
69533;DHT22;56729;52.036;5.332;2022-09-03T07:01:16;17.20;65.80
69533;DHT22;56729;52.036;5.332;2022-09-03T07:02:18;17.20;66.00
69533;DHT22;56729;52.036;5.332;2022-09-03T07:03:23;17.20;66.10
69533;DHT22;56729;52.036;5.332;2022-09-03T07:04:28;17.20;66.40
69533;DHT22;56729;52.036;5.332;2022-09-03T07:05:31;17.20;66.60
69533;DHT22;56729;52.036;5.332;2022-09-03T07:06:40;17.20;66.50
69533;DHT22;56729;52.036;5.332;2022-09-03T07:07:43;17.20;66.40
69533;DHT22;56729;52.036;5.332;2022-09-03T07:08:45;17.20;66.30
69533;DHT22;56729;52.036;5.332;2022-09-03T07:09:47;17.20;66.10
69533;DHT22;56729;52.036;5.332;2022-09-03T07:10:49;17.20;65.20
69533;DHT22;56729;52.036;5.332;2022-09-03T07:11:52;17.30;64.60
69533;DHT22;56729;52.036;5.332;2022-09-03T07:12:54;17.30;64.50
69533;DHT22;56729;52.036;5.332;2022-09-03T07:13:57;17.30;62.90
69533;DHT22;56729;52.036;5.332;2022-09-03T07:15:00;17.40;62.00
69533;DHT22;56729;52.036;5.332;2022-09-03T07:16:06;17.50;62.90
69533;DHT22;56729;52.036;5.332;2022-09-03T07:17:08;17.50;62.50
69533;DHT22;56729;52.036;5.332;2022-09-03T07:18:10;17.60;61.70
69533;DHT22;56729;52.036;5.332;2022-09-03T07:19:14;17.60;63.70
69533;DHT22;56729;52.036;5.332;2022-09-03T07:20:16;17.70;62.50
69533;DHT22;56729;52.036;5.332;2022-09-03T07:21:20;17.70;62.00
69533;DHT22;56729;52.036;5.332;2022-09-03T07:22:22;17.70;62.00
69533;DHT22;56729;52.036;5.332;2022-09-03T07:23:33;17.80;62.20
69533;DHT22;56729;52.036;5.332;2022-09-03T07:24:35;17.80;62.00
69533;DHT22;56729;52.036;5.332;2022-09-03T07:25:38;17.90;62.00
69533;DHT22;56729;52.036;5.332;2022-09-03T07:26:41;17.90;61.90
69533;DHT22;56729;52.036;5.332;2022-09-03T07:27:50;17.90;61.10
69533;DHT22;56729;52.036;5.332;2022-09-03T07:28:52;18.00;61.90
69533;DHT22;56729;52.036;5.332;2022-09-03T07:29:54;18.00;60.90
69533;DHT22;56729;52.036;5.332;2022-09-03T07:31:05;18.10;60.70
69533;DHT22;56729;52.036;5.332;2022-09-03T07:32:07;18.10;61.00
69533;DHT22;56729;52.036;5.332;2022-09-03T07:33:09;18.10;60.10
69533;DHT22;56729;52.036;5.332;2022-09-03T07:34:12;18.20;60.00
69533;DHT22;56729;52.036;5.332;2022-09-03T07:35:14;18.20;59.90
69533;DHT22;56729;52.036;5.332;2022-09-03T07:36:16;18.30;59.70
69533;DHT22;56729;52.036;5.332;2022-09-03T07:37:19;18.30;59.60
69533;DHT22;56729;52.036;5.332;2022-09-03T07:38:20;18.40;59.10
69533;DHT22;56729;52.036;5.332;2022-09-03T07:39:24;18.40;59.50